sensor_id;sensor_type;location;lat;lon;timestamp;P1;durP1;ratioP1;P2;durP2;ratioP2
8698;SDS011;4386;51.236;6.742;2022-09-20T00:00:29;6.70;;;2.40;;
8698;SDS011;4386;51.236;6.742;2022-09-20T00:01:32;11.82;;;3.13;;
8698;SDS011;4386;51.236;6.742;2022-09-20T00:02:36;9.05;;;2.55;;
8698;SDS011;4386;51.236;6.742;2022-09-20T00:03:38;4.82;;;2.30;;
8698;SDS011;4386;51.236;6.742;2022-09-20T00:04:42;17.65;;;3.55;;
8698;SDS011;4386;51.236;6.742;2022-09-20T00:05:44;7.25;;;2.70;;
8698;SDS011;4386;51.236;6.742;2022-09-20T00:06:48;9.32;;;2.92;;
8698;SDS011;4386;51.236;6.742;2022-09-20T00:07:50;7.10;;;2.65;;
8698;SDS011;4386;51.236;6.742;2022-09-20T00:08:53;9.95;;;2.60;;
8698;SDS011;4386;51.236;6.742;2022-09-20T00:09:56;7.53;;;2.67;;
8698;SDS011;4386;51.236;6.742;2022-09-20T00:10:59;6.68;;;3.10;;
8698;SDS011;4386;51.236;6.742;2022-09-20T00:12:02;10.23;;;3.30;;
8698;SDS011;4386;51.236;6.742;2022-09-20T00:13:06;4.28;;;2.67;;
8698;SDS011;4386;51.236;6.742;2022-09-20T00:14:10;5.75;;;2.45;;
8698;SDS011;4386;51.236;6.742;2022-09-20T00:15:13;8.73;;;2.97;;
8698;SDS011;4386;51.236;6.742;2022-09-20T00:16:16;7.20;;;2.47;;
8698;SDS011;4386;51.236;6.742;2022-09-20T00:17:20;9.98;;;3.33;;
8698;SDS011;4386;51.236;6.742;2022-09-20T00:18:23;5.93;;;2.40;;
8698;SDS011;4386;51.236;6.742;2022-09-20T00:19:26;13.05;;;3.35;;
8698;SDS011;4386;51.236;6.742;2022-09-20T00:20:28;6.82;;;2.80;;
8698;SDS011;4386;51.236;6.742;2022-09-20T00:21:30;5.85;;;3.22;;
8698;SDS011;4386;51.236;6.742;2022-09-20T00:22:34;8.18;;;2.90;;
8698;SDS011;4386;51.236;6.742;2022-09-20T00:23:36;4.75;;;3.03;;
8698;SDS011;4386;51.236;6.742;2022-09-20T00:24:40;5.20;;;2.55;;
8698;SDS011;4386;51.236;6.742;2022-09-20T00:25:55;6.05;;;3.10;;
8698;SDS011;4386;51.236;6.742;2022-09-20T00:26:59;10.70;;;2.72;;
8698;SDS011;4386;51.236;6.742;2022-09-20T00:28:00;6.10;;;2.92;;
8698;SDS011;4386;51.236;6.742;2022-09-20T00:29:03;12.52;;;2.53;;
8698;SDS011;4386;51.236;6.742;2022-09-20T00:30:06;6.50;;;3.08;;
8698;SDS011;4386;51.236;6.742;2022-09-20T00:31:10;5.05;;;2.85;;
8698;SDS011;4386;51.236;6.742;2022-09-20T00:32:12;8.40;;;3.55;;
8698;SDS011;4386;51.236;6.742;2022-09-20T00:33:14;4.18;;;2.90;;
8698;SDS011;4386;51.236;6.742;2022-09-20T00:34:16;8.25;;;3.45;;
8698;SDS011;4386;51.236;6.742;2022-09-20T00:35:36;11.23;;;3.03;;
8698;SDS011;4386;51.236;6.742;2022-09-20T00:36:38;6.95;;;3.20;;
8698;SDS011;4386;51.236;6.742;2022-09-20T00:37:41;8.98;;;2.92;;
8698;SDS011;4386;51.236;6.742;2022-09-20T00:38:44;7.97;;;3.70;;
8698;SDS011;4386;51.236;6.742;2022-09-20T00:39:47;6.78;;;3.30;;
8698;SDS011;4386;51.236;6.742;2022-09-20T00:40:50;5.47;;;3.30;;
8698;SDS011;4386;51.236;6.742;2022-09-20T00:41:52;7.93;;;3.88;;
8698;SDS011;4386;51.236;6.742;2022-09-20T00:42:54;8.07;;;2.85;;
8698;SDS011;4386;51.236;6.742;2022-09-20T00:43:56;10.63;;;3.55;;
8698;SDS011;4386;51.236;6.742;2022-09-20T00:45:00;7.57;;;3.15;;
8698;SDS011;4386;51.236;6.742;2022-09-20T00:46:04;6.90;;;2.60;;
8698;SDS011;4386;51.236;6.742;2022-09-20T00:47:15;6.50;;;3.13;;
8698;SDS011;4386;51.236;6.742;2022-09-20T00:48:26;12.85;;;3.80;;
8698;SDS011;4386;51.236;6.742;2022-09-20T00:49:33;13.85;;;3.38;;
8698;SDS011;4386;51.236;6.742;2022-09-20T00:50:38;5.65;;;3.50;;
8698;SDS011;4386;51.236;6.742;2022-09-20T00:51:44;6.20;;;3.15;;
8698;SDS011;4386;51.236;6.742;2022-09-20T00:52:51;8.77;;;3.13;;
8698;SDS011;4386;51.236;6.742;2022-09-20T00:53:57;9.18;;;4.22;;
8698;SDS011;4386;51.236;6.742;2022-09-20T00:55:06;9.15;;;3.67;;
8698;SDS011;4386;51.236;6.742;2022-09-20T00:56:10;8.25;;;3.33;;
8698;SDS011;4386;51.236;6.742;2022-09-20T00:57:14;10.57;;;3.65;;
8698;SDS011;4386;51.236;6.742;2022-09-20T00:58:17;11.93;;;3.65;;
8698;SDS011;4386;51.236;6.742;2022-09-20T00:59:21;5.55;;;3.85;;
8698;SDS011;4386;51.236;6.742;2022-09-20T01:00:26;6.25;;;3.35;;
8698;SDS011;4386;51.236;6.742;2022-09-20T01:01:29;4.90;;;3.15;;
8698;SDS011;4386;51.236;6.742;2022-09-20T01:02:32;11.32;;;3.42;;
8698;SDS011;4386;51.236;6.742;2022-09-20T01:03:37;8.00;;;2.90;;
8698;SDS011;4386;51.236;6.742;2022-09-20T01:04:42;10.45;;;3.40;;
8698;SDS011;4386;51.236;6.742;2022-09-20T01:05:45;6.70;;;3.38;;
8698;SDS011;4386;51.236;6.742;2022-09-20T01:06:47;8.65;;;3.38;;
8698;SDS011;4386;51.236;6.742;2022-09-20T01:07:53;8.73;;;3.70;;
8698;SDS011;4386;51.236;6.742;2022-09-20T01:08:57;6.03;;;3.17;;
8698;SDS011;4386;51.236;6.742;2022-09-20T01:10:02;9.60;;;3.22;;
8698;SDS011;4386;51.236;6.742;2022-09-20T01:11:06;7.40;;;3.25;;
8698;SDS011;4386;51.236;6.742;2022-09-20T01:12:10;6.20;;;3.10;;
8698;SDS011;4386;51.236;6.742;2022-09-20T01:13:19;14.63;;;3.35;;
8698;SDS011;4386;51.236;6.742;2022-09-20T01:14:21;8.43;;;3.22;;
8698;SDS011;4386;51.236;6.742;2022-09-20T01:15:26;11.95;;;3.20;;
8698;SDS011;4386;51.236;6.742;2022-09-20T01:16:30;13.10;;;3.90;;
8698;SDS011;4386;51.236;6.742;2022-09-20T01:17:35;10.57;;;3.60;;
8698;SDS011;4386;51.236;6.742;2022-09-20T01:18:41;12.25;;;3.95;;
8698;SDS011;4386;51.236;6.742;2022-09-20T01:19:46;7.60;;;3.58;;
8698;SDS011;4386;51.236;6.742;2022-09-20T01:20:53;9.27;;;3.58;;
8698;SDS011;4386;51.236;6.742;2022-09-20T01:21:57;11.85;;;3.72;;
8698;SDS011;4386;51.236;6.742;2022-09-20T01:23:09;7.57;;;3.38;;
8698;SDS011;4386;51.236;6.742;2022-09-20T01:24:24;8.85;;;3.75;;
8698;SDS011;4386;51.236;6.742;2022-09-20T01:25:38;7.85;;;3.70;;
8698;SDS011;4386;51.236;6.742;2022-09-20T01:27:00;12.98;;;3.80;;
8698;SDS011;4386;51.236;6.742;2022-09-20T01:28:09;6.25;;;3.90;;
8698;SDS011;4386;51.236;6.742;2022-09-20T01:29:15;4.80;;;3.67;;
8698;SDS011;4386;51.236;6.742;2022-09-20T01:30:27;15.75;;;4.25;;
8698;SDS011;4386;51.236;6.742;2022-09-20T01:31:41;4.88;;;3.38;;
8698;SDS011;4386;51.236;6.742;2022-09-20T01:32:58;11.40;;;3.60;;
8698;SDS011;4386;51.236;6.742;2022-09-20T01:34:09;8.60;;;3.42;;
8698;SDS011;4386;51.236;6.742;2022-09-20T01:35:13;11.85;;;3.92;;
8698;SDS011;4386;51.236;6.742;2022-09-20T01:36:22;6.63;;;4.03;;
8698;SDS011;4386;51.236;6.742;2022-09-20T01:37:27;11.57;;;3.72;;
8698;SDS011;4386;51.236;6.742;2022-09-20T01:38:35;9.13;;;4.35;;
8698;SDS011;4386;51.236;6.742;2022-09-20T01:39:44;13.45;;;4.40;;
8698;SDS011;4386;51.236;6.742;2022-09-20T01:40:55;8.85;;;4.78;;
8698;SDS011;4386;51.236;6.742;2022-09-20T01:42:04;9.30;;;3.85;;
8698;SDS011;4386;51.236;6.742;2022-09-20T01:43:15;6.55;;;3.35;;
8698;SDS011;4386;51.236;6.742;2022-09-20T01:44:22;6.85;;;3.38;;
8698;SDS011;4386;51.236;6.742;2022-09-20T01:45:32;11.88;;;4.22;;
8698;SDS011;4386;51.236;6.742;2022-09-20T01:46:34;11.73;;;3.40;;
8698;SDS011;4386;51.236;6.742;2022-09-20T01:47:39;9.90;;;3.95;;
8698;SDS011;4386;51.236;6.742;2022-09-20T01:48:47;7.40;;;3.55;;
8698;SDS011;4386;51.236;6.742;2022-09-20T01:49:59;12.15;;;4.15;;
8698;SDS011;4386;51.236;6.742;2022-09-20T01:52:59;8.15;;;4.72;;
8698;SDS011;4386;51.236;6.742;2022-09-20T01:54:21;10.43;;;3.60;;
8698;SDS011;4386;51.236;6.742;2022-09-20T01:55:48;7.93;;;4.03;;
8698;SDS011;4386;51.236;6.742;2022-09-20T01:57:15;11.75;;;3.72;;
8698;SDS011;4386;51.236;6.742;2022-09-20T01:58:36;6.38;;;4.35;;
8698;SDS011;4386;51.236;6.742;2022-09-20T02:00:23;8.13;;;3.15;;
8698;SDS011;4386;51.236;6.742;2022-09-20T02:01:35;10.02;;;3.67;;
8698;SDS011;4386;51.236;6.742;2022-09-20T02:04:58;10.52;;;3.78;;
8698;SDS011;4386;51.236;6.742;2022-09-20T02:08:00;5.88;;;3.25;;
8698;SDS011;4386;51.236;6.742;2022-09-20T02:10:46;7.18;;;3.60;;
8698;SDS011;4386;51.236;6.742;2022-09-20T02:12:16;9.95;;;3.63;;
8698;SDS011;4386;51.236;6.742;2022-09-20T02:13:40;6.57;;;3.42;;
8698;SDS011;4386;51.236;6.742;2022-09-20T02:14:56;7.35;;;3.40;;
8698;SDS011;4386;51.236;6.742;2022-09-20T02:17:33;7.95;;;3.45;;
8698;SDS011;4386;51.236;6.742;2022-09-20T02:18:54;5.78;;;3.00;;
8698;SDS011;4386;51.236;6.742;2022-09-20T02:20:18;7.78;;;3.10;;
8698;SDS011;4386;51.236;6.742;2022-09-20T02:21:34;10.30;;;3.78;;
8698;SDS011;4386;51.236;6.742;2022-09-20T02:22:43;8.35;;;3.60;;
8698;SDS011;4386;51.236;6.742;2022-09-20T02:23:59;8.85;;;3.00;;
8698;SDS011;4386;51.236;6.742;2022-09-20T02:25:19;8.13;;;3.78;;
8698;SDS011;4386;51.236;6.742;2022-09-20T02:26:43;7.82;;;3.58;;
8698;SDS011;4386;51.236;6.742;2022-09-20T02:27:54;8.50;;;3.95;;
8698;SDS011;4386;51.236;6.742;2022-09-20T02:29:11;14.05;;;3.80;;
8698;SDS011;4386;51.236;6.742;2022-09-20T02:30:28;14.15;;;3.58;;
8698;SDS011;4386;51.236;6.742;2022-09-20T02:31:54;4.35;;;3.20;;
8698;SDS011;4386;51.236;6.742;2022-09-20T02:33:17;9.80;;;3.55;;
8698;SDS011;4386;51.236;6.742;2022-09-20T02:36:29;13.52;;;3.80;;
8698;SDS011;4386;51.236;6.742;2022-09-20T02:37:49;15.35;;;4.00;;
8698;SDS011;4386;51.236;6.742;2022-09-20T02:39:13;7.28;;;3.00;;
8698;SDS011;4386;51.236;6.742;2022-09-20T02:40:19;6.35;;;3.15;;
8698;SDS011;4386;51.236;6.742;2022-09-20T02:41:41;13.13;;;4.07;;
8698;SDS011;4386;51.236;6.742;2022-09-20T02:42:54;9.93;;;3.25;;
8698;SDS011;4386;51.236;6.742;2022-09-20T02:44:05;6.97;;;2.85;;
8698;SDS011;4386;51.236;6.742;2022-09-20T02:45:15;5.05;;;2.92;;
8698;SDS011;4386;51.236;6.742;2022-09-20T02:46:27;10.15;;;3.42;;
8698;SDS011;4386;51.236;6.742;2022-09-20T02:47:34;8.93;;;3.88;;
8698;SDS011;4386;51.236;6.742;2022-09-20T02:48:41;7.20;;;3.40;;
8698;SDS011;4386;51.236;6.742;2022-09-20T02:49:51;6.72;;;3.05;;
8698;SDS011;4386;51.236;6.742;2022-09-20T02:51:04;11.88;;;3.95;;
8698;SDS011;4386;51.236;6.742;2022-09-20T02:52:15;10.15;;;3.00;;
8698;SDS011;4386;51.236;6.742;2022-09-20T02:53:31;8.60;;;3.45;;
8698;SDS011;4386;51.236;6.742;2022-09-20T02:54:41;8.48;;;3.35;;
8698;SDS011;4386;51.236;6.742;2022-09-20T02:55:55;11.25;;;3.70;;
8698;SDS011;4386;51.236;6.742;2022-09-20T02:57:04;8.73;;;3.47;;
8698;SDS011;4386;51.236;6.742;2022-09-20T02:58:20;8.90;;;3.17;;
8698;SDS011;4386;51.236;6.742;2022-09-20T02:59:30;5.47;;;2.90;;
8698;SDS011;4386;51.236;6.742;2022-09-20T03:00:43;6.55;;;3.15;;
8698;SDS011;4386;51.236;6.742;2022-09-20T03:01:51;9.05;;;3.05;;
8698;SDS011;4386;51.236;6.742;2022-09-20T03:03:05;8.25;;;3.30;;
8698;SDS011;4386;51.236;6.742;2022-09-20T03:04:18;14.77;;;4.05;;
8698;SDS011;4386;51.236;6.742;2022-09-20T03:05:26;7.80;;;2.85;;
8698;SDS011;4386;51.236;6.742;2022-09-20T03:06:41;5.72;;;3.25;;
8698;SDS011;4386;51.236;6.742;2022-09-20T03:08:00;6.78;;;3.35;;
8698;SDS011;4386;51.236;6.742;2022-09-20T03:09:17;6.45;;;3.55;;
8698;SDS011;4386;51.236;6.742;2022-09-20T03:10:30;10.13;;;3.70;;
8698;SDS011;4386;51.236;6.742;2022-09-20T03:11:40;8.77;;;3.15;;
8698;SDS011;4386;51.236;6.742;2022-09-20T03:12:52;9.27;;;3.10;;
8698;SDS011;4386;51.236;6.742;2022-09-20T03:14:09;7.20;;;2.88;;
8698;SDS011;4386;51.236;6.742;2022-09-20T03:15:15;12.75;;;3.50;;
8698;SDS011;4386;51.236;6.742;2022-09-20T03:16:31;8.60;;;3.30;;
8698;SDS011;4386;51.236;6.742;2022-09-20T03:17:46;5.88;;;2.60;;
8698;SDS011;4386;51.236;6.742;2022-09-20T03:18:55;10.20;;;3.22;;
8698;SDS011;4386;51.236;6.742;2022-09-20T03:20:06;18.48;;;3.53;;
8698;SDS011;4386;51.236;6.742;2022-09-20T03:21:21;8.57;;;2.50;;
8698;SDS011;4386;51.236;6.742;2022-09-20T03:22:40;8.40;;;3.28;;
8698;SDS011;4386;51.236;6.742;2022-09-20T03:23:53;6.93;;;3.15;;
8698;SDS011;4386;51.236;6.742;2022-09-20T03:25:19;7.97;;;3.13;;
8698;SDS011;4386;51.236;6.742;2022-09-20T03:26:36;6.03;;;3.22;;
8698;SDS011;4386;51.236;6.742;2022-09-20T03:27:48;14.27;;;3.63;;
8698;SDS011;4386;51.236;6.742;2022-09-20T03:29:01;6.72;;;3.17;;
8698;SDS011;4386;51.236;6.742;2022-09-20T03:30:12;10.43;;;2.80;;
8698;SDS011;4386;51.236;6.742;2022-09-20T03:31:37;8.43;;;3.78;;
8698;SDS011;4386;51.236;6.742;2022-09-20T03:32:54;8.02;;;3.25;;
8698;SDS011;4386;51.236;6.742;2022-09-20T03:34:08;8.45;;;3.75;;
8698;SDS011;4386;51.236;6.742;2022-09-20T03:35:30;6.22;;;2.90;;
8698;SDS011;4386;51.236;6.742;2022-09-20T03:36:46;13.38;;;3.92;;
8698;SDS011;4386;51.236;6.742;2022-09-20T03:38:01;9.90;;;4.32;;
8698;SDS011;4386;51.236;6.742;2022-09-20T03:39:21;9.55;;;4.07;;
8698;SDS011;4386;51.236;6.742;2022-09-20T03:40:48;10.15;;;3.40;;
8698;SDS011;4386;51.236;6.742;2022-09-20T03:42:10;8.05;;;3.05;;
8698;SDS011;4386;51.236;6.742;2022-09-20T03:43:18;9.30;;;3.10;;
8698;SDS011;4386;51.236;6.742;2022-09-20T03:44:43;9.13;;;3.20;;
8698;SDS011;4386;51.236;6.742;2022-09-20T03:46:03;10.23;;;4.13;;
8698;SDS011;4386;51.236;6.742;2022-09-20T03:47:22;10.57;;;3.60;;
8698;SDS011;4386;51.236;6.742;2022-09-20T03:48:51;10.55;;;3.78;;
8698;SDS011;4386;51.236;6.742;2022-09-20T03:50:10;5.80;;;3.25;;
8698;SDS011;4386;51.236;6.742;2022-09-20T03:51:25;11.32;;;3.80;;
8698;SDS011;4386;51.236;6.742;2022-09-20T03:52:42;7.38;;;3.75;;
8698;SDS011;4386;51.236;6.742;2022-09-20T03:55:40;6.15;;;3.38;;
8698;SDS011;4386;51.236;6.742;2022-09-20T03:56:56;15.30;;;3.40;;
8698;SDS011;4386;51.236;6.742;2022-09-20T03:58:19;11.68;;;3.80;;
8698;SDS011;4386;51.236;6.742;2022-09-20T03:59:35;12.23;;;3.67;;
8698;SDS011;4386;51.236;6.742;2022-09-20T04:00:53;8.52;;;4.32;;
8698;SDS011;4386;51.236;6.742;2022-09-20T04:02:12;9.45;;;4.18;;
8698;SDS011;4386;51.236;6.742;2022-09-20T04:03:33;9.30;;;3.95;;
8698;SDS011;4386;51.236;6.742;2022-09-20T04:04:47;5.05;;;3.33;;
8698;SDS011;4386;51.236;6.742;2022-09-20T04:05:57;9.35;;;4.20;;
8698;SDS011;4386;51.236;6.742;2022-09-20T04:07:13;10.75;;;3.92;;
8698;SDS011;4386;51.236;6.742;2022-09-20T04:08:22;8.07;;;3.95;;
8698;SDS011;4386;51.236;6.742;2022-09-20T04:09:54;9.20;;;4.15;;
8698;SDS011;4386;51.236;6.742;2022-09-20T04:11:05;6.93;;;4.00;;
8698;SDS011;4386;51.236;6.742;2022-09-20T04:12:19;10.75;;;4.10;;
8698;SDS011;4386;51.236;6.742;2022-09-20T04:13:32;8.43;;;3.70;;
8698;SDS011;4386;51.236;6.742;2022-09-20T04:14:37;7.25;;;3.90;;
8698;SDS011;4386;51.236;6.742;2022-09-20T04:15:45;17.17;;;5.38;;
8698;SDS011;4386;51.236;6.742;2022-09-20T04:16:59;10.93;;;4.20;;
8698;SDS011;4386;51.236;6.742;2022-09-20T04:18:09;7.60;;;3.63;;
8698;SDS011;4386;51.236;6.742;2022-09-20T04:19:20;11.63;;;5.47;;
8698;SDS011;4386;51.236;6.742;2022-09-20T04:20:36;8.55;;;3.85;;
8698;SDS011;4386;51.236;6.742;2022-09-20T04:21:45;15.52;;;5.03;;
8698;SDS011;4386;51.236;6.742;2022-09-20T04:22:53;11.75;;;4.78;;
8698;SDS011;4386;51.236;6.742;2022-09-20T04:24:00;8.07;;;3.92;;
8698;SDS011;4386;51.236;6.742;2022-09-20T04:25:11;8.45;;;3.95;;
8698;SDS011;4386;51.236;6.742;2022-09-20T04:26:19;6.75;;;3.92;;
8698;SDS011;4386;51.236;6.742;2022-09-20T04:27:27;11.23;;;4.65;;
8698;SDS011;4386;51.236;6.742;2022-09-20T04:28:33;7.22;;;3.78;;
8698;SDS011;4386;51.236;6.742;2022-09-20T04:29:42;11.63;;;4.65;;
8698;SDS011;4386;51.236;6.742;2022-09-20T04:30:49;12.48;;;5.32;;
8698;SDS011;4386;51.236;6.742;2022-09-20T04:31:57;8.95;;;4.13;;
8698;SDS011;4386;51.236;6.742;2022-09-20T04:33:10;10.75;;;4.30;;
8698;SDS011;4386;51.236;6.742;2022-09-20T04:34:21;6.40;;;4.18;;
8698;SDS011;4386;51.236;6.742;2022-09-20T04:35:52;9.93;;;3.83;;
8698;SDS011;4386;51.236;6.742;2022-09-20T04:37:21;13.32;;;5.00;;
8698;SDS011;4386;51.236;6.742;2022-09-20T04:38:29;10.80;;;5.13;;
8698;SDS011;4386;51.236;6.742;2022-09-20T04:39:33;6.88;;;4.35;;
8698;SDS011;4386;51.236;6.742;2022-09-20T04:40:50;12.65;;;4.90;;
8698;SDS011;4386;51.236;6.742;2022-09-20T04:44:00;13.23;;;5.68;;
8698;SDS011;4386;51.236;6.742;2022-09-20T04:45:38;10.60;;;5.00;;
8698;SDS011;4386;51.236;6.742;2022-09-20T04:47:22;13.57;;;4.90;;
8698;SDS011;4386;51.236;6.742;2022-09-20T04:48:47;18.27;;;5.05;;
8698;SDS011;4386;51.236;6.742;2022-09-20T04:50:16;9.15;;;4.32;;
8698;SDS011;4386;51.236;6.742;2022-09-20T04:51:38;13.15;;;5.03;;
8698;SDS011;4386;51.236;6.742;2022-09-20T04:54:27;12.07;;;4.10;;
8698;SDS011;4386;51.236;6.742;2022-09-20T04:55:48;15.57;;;5.53;;
8698;SDS011;4386;51.236;6.742;2022-09-20T04:56:56;9.93;;;4.45;;
8698;SDS011;4386;51.236;6.742;2022-09-20T04:59:53;13.73;;;5.15;;
8698;SDS011;4386;51.236;6.742;2022-09-20T05:01:29;10.80;;;4.65;;
8698;SDS011;4386;51.236;6.742;2022-09-20T05:06:38;8.48;;;4.97;;
8698;SDS011;4386;51.236;6.742;2022-09-20T05:08:00;11.95;;;5.00;;
8698;SDS011;4386;51.236;6.742;2022-09-20T05:09:42;14.65;;;7.03;;
8698;SDS011;4386;51.236;6.742;2022-09-20T05:12:34;12.63;;;4.95;;
8698;SDS011;4386;51.236;6.742;2022-09-20T05:14:08;7.57;;;5.07;;
8698;SDS011;4386;51.236;6.742;2022-09-20T05:15:32;10.93;;;5.30;;
8698;SDS011;4386;51.236;6.742;2022-09-20T05:16:45;15.63;;;5.97;;
8698;SDS011;4386;51.236;6.742;2022-09-20T05:18:06;10.50;;;5.68;;
8698;SDS011;4386;51.236;6.742;2022-09-20T05:19:24;12.77;;;5.07;;
8698;SDS011;4386;51.236;6.742;2022-09-20T05:22:03;11.02;;;5.47;;
8698;SDS011;4386;51.236;6.742;2022-09-20T05:23:35;16.73;;;5.53;;
8698;SDS011;4386;51.236;6.742;2022-09-20T05:26:27;10.57;;;5.40;;
8698;SDS011;4386;51.236;6.742;2022-09-20T05:27:41;11.52;;;4.70;;
8698;SDS011;4386;51.236;6.742;2022-09-20T05:28:50;11.13;;;5.10;;
8698;SDS011;4386;51.236;6.742;2022-09-20T05:30:00;8.60;;;5.70;;
8698;SDS011;4386;51.236;6.742;2022-09-20T05:31:07;9.65;;;5.90;;
8698;SDS011;4386;51.236;6.742;2022-09-20T05:32:17;14.63;;;6.82;;
8698;SDS011;4386;51.236;6.742;2022-09-20T05:33:25;9.48;;;5.38;;
8698;SDS011;4386;51.236;6.742;2022-09-20T05:34:32;14.85;;;6.38;;
8698;SDS011;4386;51.236;6.742;2022-09-20T05:35:44;16.92;;;6.40;;
8698;SDS011;4386;51.236;6.742;2022-09-20T05:36:56;11.73;;;5.25;;
8698;SDS011;4386;51.236;6.742;2022-09-20T05:38:07;9.95;;;4.80;;
8698;SDS011;4386;51.236;6.742;2022-09-20T05:39:20;10.15;;;5.05;;
8698;SDS011;4386;51.236;6.742;2022-09-20T05:40:34;11.40;;;6.05;;
8698;SDS011;4386;51.236;6.742;2022-09-20T05:41:51;20.17;;;5.60;;
8698;SDS011;4386;51.236;6.742;2022-09-20T05:43:01;9.65;;;5.72;;
8698;SDS011;4386;51.236;6.742;2022-09-20T05:44:14;13.80;;;7.72;;
8698;SDS011;4386;51.236;6.742;2022-09-20T05:45:36;8.45;;;5.55;;
8698;SDS011;4386;51.236;6.742;2022-09-20T05:46:51;13.05;;;6.25;;
8698;SDS011;4386;51.236;6.742;2022-09-20T05:48:00;16.90;;;6.20;;
8698;SDS011;4386;51.236;6.742;2022-09-20T05:49:15;12.68;;;5.45;;
8698;SDS011;4386;51.236;6.742;2022-09-20T05:50:28;14.93;;;5.75;;
8698;SDS011;4386;51.236;6.742;2022-09-20T05:51:52;6.95;;;5.20;;
8698;SDS011;4386;51.236;6.742;2022-09-20T05:53:12;14.52;;;5.90;;
8698;SDS011;4386;51.236;6.742;2022-09-20T05:54:40;11.90;;;5.40;;
8698;SDS011;4386;51.236;6.742;2022-09-20T05:55:55;9.23;;;5.72;;
8698;SDS011;4386;51.236;6.742;2022-09-20T05:57:10;14.60;;;6.30;;
8698;SDS011;4386;51.236;6.742;2022-09-20T05:58:27;12.25;;;5.18;;
8698;SDS011;4386;51.236;6.742;2022-09-20T05:59:43;11.57;;;5.70;;
8698;SDS011;4386;51.236;6.742;2022-09-20T06:00:57;27.73;;;6.43;;
8698;SDS011;4386;51.236;6.742;2022-09-20T06:02:13;10.32;;;5.70;;
8698;SDS011;4386;51.236;6.742;2022-09-20T06:03:34;15.23;;;6.20;;
8698;SDS011;4386;51.236;6.742;2022-09-20T06:04:41;7.88;;;5.40;;
8698;SDS011;4386;51.236;6.742;2022-09-20T06:05:53;8.35;;;5.47;;
8698;SDS011;4386;51.236;6.742;2022-09-20T06:07:05;10.90;;;5.40;;
8698;SDS011;4386;51.236;6.742;2022-09-20T06:08:20;7.88;;;5.43;;
8698;SDS011;4386;51.236;6.742;2022-09-20T06:09:40;11.15;;;5.30;;
8698;SDS011;4386;51.236;6.742;2022-09-20T06:10:54;10.77;;;5.40;;
8698;SDS011;4386;51.236;6.742;2022-09-20T06:12:07;11.13;;;7.25;;
8698;SDS011;4386;51.236;6.742;2022-09-20T06:13:23;9.35;;;5.03;;
8698;SDS011;4386;51.236;6.742;2022-09-20T06:14:37;15.30;;;6.45;;
8698;SDS011;4386;51.236;6.742;2022-09-20T06:15:47;16.63;;;6.10;;
8698;SDS011;4386;51.236;6.742;2022-09-20T06:16:58;11.82;;;5.75;;
8698;SDS011;4386;51.236;6.742;2022-09-20T06:18:14;8.95;;;5.63;;
8698;SDS011;4386;51.236;6.742;2022-09-20T06:19:25;8.68;;;5.78;;
8698;SDS011;4386;51.236;6.742;2022-09-20T06:20:36;10.27;;;5.50;;
8698;SDS011;4386;51.236;6.742;2022-09-20T06:21:47;9.88;;;5.80;;
8698;SDS011;4386;51.236;6.742;2022-09-20T06:22:53;13.07;;;6.20;;
8698;SDS011;4386;51.236;6.742;2022-09-20T06:23:59;9.95;;;6.68;;
8698;SDS011;4386;51.236;6.742;2022-09-20T06:25:03;11.45;;;5.80;;
8698;SDS011;4386;51.236;6.742;2022-09-20T06:26:16;15.18;;;6.05;;
8698;SDS011;4386;51.236;6.742;2022-09-20T06:27:24;14.85;;;5.38;;
8698;SDS011;4386;51.236;6.742;2022-09-20T06:28:31;13.35;;;5.88;;
8698;SDS011;4386;51.236;6.742;2022-09-20T06:29:37;12.20;;;5.85;;
8698;SDS011;4386;51.236;6.742;2022-09-20T06:30:42;13.30;;;6.10;;
8698;SDS011;4386;51.236;6.742;2022-09-20T06:31:48;10.10;;;5.60;;
8698;SDS011;4386;51.236;6.742;2022-09-20T06:32:56;10.85;;;5.97;;
8698;SDS011;4386;51.236;6.742;2022-09-20T06:34:02;14.85;;;6.20;;
8698;SDS011;4386;51.236;6.742;2022-09-20T06:35:06;13.65;;;5.40;;
8698;SDS011;4386;51.236;6.742;2022-09-20T06:36:09;23.15;;;6.57;;
8698;SDS011;4386;51.236;6.742;2022-09-20T06:37:36;17.98;;;6.60;;
8698;SDS011;4386;51.236;6.742;2022-09-20T06:39:05;9.48;;;5.63;;
8698;SDS011;4386;51.236;6.742;2022-09-20T06:40:35;12.07;;;5.65;;
8698;SDS011;4386;51.236;6.742;2022-09-20T06:41:59;11.38;;;5.30;;
8698;SDS011;4386;51.236;6.742;2022-09-20T06:43:02;10.52;;;4.93;;
8698;SDS011;4386;51.236;6.742;2022-09-20T06:44:04;8.13;;;5.15;;
8698;SDS011;4386;51.236;6.742;2022-09-20T06:45:07;11.98;;;6.00;;
8698;SDS011;4386;51.236;6.742;2022-09-20T06:46:09;16.45;;;6.85;;
8698;SDS011;4386;51.236;6.742;2022-09-20T06:47:14;12.10;;;5.80;;
8698;SDS011;4386;51.236;6.742;2022-09-20T06:48:15;14.85;;;6.13;;
8698;SDS011;4386;51.236;6.742;2022-09-20T06:49:19;13.25;;;6.15;;
8698;SDS011;4386;51.236;6.742;2022-09-20T06:50:21;10.25;;;5.68;;
8698;SDS011;4386;51.236;6.742;2022-09-20T06:51:24;9.63;;;4.82;;
8698;SDS011;4386;51.236;6.742;2022-09-20T06:52:27;15.02;;;6.18;;
8698;SDS011;4386;51.236;6.742;2022-09-20T06:53:30;12.23;;;5.50;;
8698;SDS011;4386;51.236;6.742;2022-09-20T06:54:36;11.07;;;5.22;;
8698;SDS011;4386;51.236;6.742;2022-09-20T06:55:40;11.02;;;6.18;;
8698;SDS011;4386;51.236;6.742;2022-09-20T06:56:43;8.63;;;5.47;;
8698;SDS011;4386;51.236;6.742;2022-09-20T06:57:47;12.48;;;6.15;;
8698;SDS011;4386;51.236;6.742;2022-09-20T06:58:49;15.18;;;5.40;;
8698;SDS011;4386;51.236;6.742;2022-09-20T06:59:52;12.98;;;5.15;;
8698;SDS011;4386;51.236;6.742;2022-09-20T07:00:53;15.52;;;5.70;;
8698;SDS011;4386;51.236;6.742;2022-09-20T07:01:56;11.43;;;5.63;;
8698;SDS011;4386;51.236;6.742;2022-09-20T07:02:59;12.90;;;5.95;;
8698;SDS011;4386;51.236;6.742;2022-09-20T07:04:01;9.55;;;4.75;;
8698;SDS011;4386;51.236;6.742;2022-09-20T07:05:04;12.35;;;5.20;;
8698;SDS011;4386;51.236;6.742;2022-09-20T07:06:10;10.07;;;5.15;;
8698;SDS011;4386;51.236;6.742;2022-09-20T07:07:16;16.92;;;6.35;;
8698;SDS011;4386;51.236;6.742;2022-09-20T07:08:18;14.38;;;6.30;;
8698;SDS011;4386;51.236;6.742;2022-09-20T07:09:20;13.30;;;5.40;;
8698;SDS011;4386;51.236;6.742;2022-09-20T07:10:24;11.40;;;5.57;;
8698;SDS011;4386;51.236;6.742;2022-09-20T07:11:28;12.90;;;5.45;;
8698;SDS011;4386;51.236;6.742;2022-09-20T07:12:35;8.23;;;5.30;;
8698;SDS011;4386;51.236;6.742;2022-09-20T07:13:36;10.32;;;5.47;;
8698;SDS011;4386;51.236;6.742;2022-09-20T07:14:39;5.65;;;4.32;;
8698;SDS011;4386;51.236;6.742;2022-09-20T07:15:40;8.30;;;5.32;;
8698;SDS011;4386;51.236;6.742;2022-09-20T07:16:43;14.75;;;4.95;;
8698;SDS011;4386;51.236;6.742;2022-09-20T07:17:46;8.38;;;4.70;;
8698;SDS011;4386;51.236;6.742;2022-09-20T07:18:49;10.07;;;4.82;;
8698;SDS011;4386;51.236;6.742;2022-09-20T07:19:55;11.60;;;4.60;;
8698;SDS011;4386;51.236;6.742;2022-09-20T07:20:59;8.35;;;5.38;;
8698;SDS011;4386;51.236;6.742;2022-09-20T07:22:06;10.70;;;5.18;;
8698;SDS011;4386;51.236;6.742;2022-09-20T07:23:08;7.88;;;5.00;;
8698;SDS011;4386;51.236;6.742;2022-09-20T07:24:10;9.60;;;4.70;;
8698;SDS011;4386;51.236;6.742;2022-09-20T07:25:15;11.98;;;4.70;;
8698;SDS011;4386;51.236;6.742;2022-09-20T07:26:20;9.95;;;5.60;;
8698;SDS011;4386;51.236;6.742;2022-09-20T07:27:24;9.90;;;5.00;;
8698;SDS011;4386;51.236;6.742;2022-09-20T07:28:30;17.85;;;5.95;;
8698;SDS011;4386;51.236;6.742;2022-09-20T07:29:34;9.13;;;5.15;;
8698;SDS011;4386;51.236;6.742;2022-09-20T07:30:36;11.20;;;4.90;;
8698;SDS011;4386;51.236;6.742;2022-09-20T07:31:38;7.45;;;4.50;;
8698;SDS011;4386;51.236;6.742;2022-09-20T07:32:41;13.82;;;4.97;;
8698;SDS011;4386;51.236;6.742;2022-09-20T07:33:43;8.27;;;4.95;;
8698;SDS011;4386;51.236;6.742;2022-09-20T07:34:46;9.85;;;4.65;;
8698;SDS011;4386;51.236;6.742;2022-09-20T07:35:47;7.22;;;4.68;;
8698;SDS011;4386;51.236;6.742;2022-09-20T07:36:50;9.02;;;4.45;;
8698;SDS011;4386;51.236;6.742;2022-09-20T07:37:55;7.68;;;4.35;;
8698;SDS011;4386;51.236;6.742;2022-09-20T07:38:57;10.63;;;4.60;;
8698;SDS011;4386;51.236;6.742;2022-09-20T07:40:00;14.02;;;4.60;;
8698;SDS011;4386;51.236;6.742;2022-09-20T07:41:03;14.00;;;4.57;;
8698;SDS011;4386;51.236;6.742;2022-09-20T07:42:08;7.60;;;4.68;;
8698;SDS011;4386;51.236;6.742;2022-09-20T07:43:10;9.10;;;3.58;;